Weather observations for the past three days for
Litchfield Municipal Airport
Imperial (Metric)
Date Time (cdt) Wind (mph) Vis. (mi.) Weather Sky Cond. Temperature (ºF) Relative Humidity Wind Chill (°F) Heat Index (°F) Pressure Precipitation (in)
Air Dwpt 6 hour altimeter (in) sea level (mb) 1 hr 3 hr 6 hr
Max. Min.
31 04:55 S 6 10.00 Fair CLR 66.7 61.7 84% 30.03 0.0
31 04:35 S 6 10.00 Fair CLR 66.6 61.5 84% 30.03 0.0
31 04:15 S 5 10.00 Fair CLR 66.2 61.5 85% 30.03 0.0
31 03:55 S 5 10.00 Fair CLR 65.5 61.2 86% 30.03 0.0
31 03:35 S 3 10.00 Fair CLR 65.5 61 85% 30.03 0.0
31 03:15 S 5 10.00 Fair CLR 65.3 61 86% 30.02 0.0
31 02:55 S 5 10.00 Fair CLR 65.3 61.2 87% 30.02 0.0
31 02:35 S 5 10.00 Fair CLR 65.5 61.3 87% 30.02 0.0
31 02:15 S 6 10.00 Fair CLR 67.1 60.8 80% 30.03 0.0
31 01:55 S 6 10.00 Fair CLR 68.2 60.8 77% 30.03 0.0
31 01:35 S 6 10.00 Fair CLR 68.4 60.4 76% 30.03 0.0
31 01:15 SE 6 10.00 Fair CLR 70.3 60.1 70% 30.03 0.0
31 00:55 SE 6 10.00 Fair CLR 71.1 59.9 82 69.4 68% 30.03 0.0
31 00:35 SE 6 10.00 Fair CLR 70.2 59.9 70% 30.03 0.0
31 00:15 SE 5 10.00 Fair CLR 70.9 59.4 67% 30.03 0.0
30 23:55 SE 6 10.00 Fair CLR 71.6 59.4 65% 30.03 0.0
30 23:35 S 6 10.00 Fair CLR 71.6 59.2 65% 30.03 0.0
30 23:15 S 6 10.00 Fair CLR 70.3 59.7 69% 30.03 0.0
30 22:55 S 6 10.00 Fair CLR 71.4 59.7 67% 30.03 0.0
30 22:35 SE 7 10.00 Fair CLR 73.6 59.2 61% 30.03 0.0
30 22:15 SE 7 10.00 Fair CLR 73.8 59.4 61% 30.03 0.0
30 21:55 SE 6 10.00 Fair CLR 74.3 59.9 61% 30.03 0.0
30 21:35 SE 6 10.00 Fair CLR 74.8 59.9 60% 30.03 0.0
30 21:15 SE 6 10.00 Fair CLR 76.3 59.7 57% 78 30.03 0.0
30 20:55 SE 7 10.00 Fair CLR 76.6 59.9 56% 78 30.02 0.0
30 20:35 SE 6 10.00 Fair CLR 76.8 59.5 55% 79 30.02 0.0
30 20:15 SE 5 10.00 Fair CLR 77.4 59.9 55% 79 30.01 0.0
30 19:55 SE 6 10.00 Fair CLR 78.3 60.3 54% 80 30.01 0.0
30 19:35 SE 5 10.00 Fair CLR 78.8 60.4 53% 80 30.01 0.0
30 19:15 S 6 10.00 Fair CLR 80.6 61 51% 81 30.01 0.0
30 18:55 S 7 10.00 Fair CLR 82.2 61.5 91 82.2 50% 83 30.01 0.0
30 18:35 S 8 10.00 Fair CLR 83.7 61.2 47% 84 30.01 0.0
30 18:15 S 8 10.00 Fair CLR 86.2 59.9 41% 86 30.01 0.0
30 17:55 S 8 10.00 Fair CLR 87.8 59.5 39% 87 30.01 0.0
30 17:35 S 12 10.00 Fair CLR 88.7 60.6 39% 89 30.01 0.0
30 17:15 S 9 10.00 Fair CLR 89.4 59.7 37% 89 30.01 0.0
30 16:55 S 10 10.00 Fair CLR 90 59.7 36% 89 30.01 0.0
30 16:35 S 9 10.00 Fair CLR 90.3 59.7 36% 90 30.01 0.0
30 16:15 S 12 10.00 Fair CLR 90.5 59.5 35% 90 30.02 0.0
30 15:55 S 12 10.00 Fair CLR 90.5 58.8 34% 90 30.02 0.0
30 15:35 S 10 10.00 Fair CLR 90.1 58.3 34% 89 30.02 0.0
30 15:15 S 12 10.00 Fair CLR 90.3 58.8 35% 89 30.03 0.0
30 14:55 S 9 0.00 NULL NULL 89.6 60.4 38% 89 30.03 0.0
30 14:35 S 12 10.00 Fair CLR 90.9 59.9 35% 90 30.03 0.0
30 14:15 S 13 10.00 Fair CLR 90.5 58.6 34% 90 30.04 0.0
30 13:55 S 10 10.00 Fair CLR 90 57.2 33% 89 30.04 0.0
30 13:35 S 12 10.00 Fair CLR 88.9 56.5 33% 87 30.05 0.0
30 13:15 S 12 10.00 Fair CLR 88.5 57.6 35% 87 30.06 0.0
30 12:55 S 12 G 16 10.00 Fair CLR 87.8 57.7 88.2 64.4 36% 87 30.06 0.0
30 12:35 S 7 G 16 10.00 Fair CLR 86.9 58.8 39% 86 30.07 0.0
30 12:15 SW 13 10.00 Fair CLR 86 60.1 42% 86 30.09 0.0
30 11:55 SW 7 10.00 Fair CLR 85.1 61 44% 85 30.09 0.0
30 11:35 SW 13 G 20 10.00 Fair CLR 84.7 59 42% 84 30.09 0.0
30 11:15 SW 9 10.00 Fair CLR 84 61.5 47% 85 30.09 0.0
30 10:55 SW 13 10.00 Fair CLR 82.6 62.2 50% 83 30.09 0.0
30 10:35 S 15 G 18 10.00 Fair CLR 81.7 62.2 52% 83 30.08 0.0
30 10:15 S 12 10.00 Fair CLR 81 62.8 54% 82 30.07 0.0
30 09:55 S 8 10.00 Fair CLR 79.3 63.7 59% 81 30.06 0.0
30 09:35 S 9 10.00 Fair CLR 77.2 63.5 63% 79 30.07 0.0
30 09:15 S 10 10.00 Fair CLR 75.7 64 67% 78 30.07 0.0
30 08:55 S 9 10.00 Fair CLR 72.9 64 74% 30.07 0.0
30 08:35 S 8 10.00 Fair CLR 72.9 64.2 74% 30.07 0.0
30 08:15 S 7 10.00 Fair CLR 70.3 63.7 80% 30.07 0.0
30 07:55 S 5 10.00 Fair CLR 68.5 63.9 85% 30.07 0.0
30 07:35 S 6 10.00 Fair CLR 66.7 63.1 88% 30.06 0.0
30 07:15 S 6 10.00 Fair CLR 64.4 62.1 92% 30.07 0.0
30 06:55 S 7 10.00 Fair CLR 64 61.7 67.6 62.8 92% 30.06 0.0
30 06:35 S 6 10.00 Fair CLR 63 61 93% 30.06 0.0
30 06:15 Calm 10.00 Fair CLR 64.2 61.5 91% 30.06 0.0
30 05:55 S 7 10.00 Fair CLR 65.5 61.7 88% 30.05 0.0
30 05:35 S 7 10.00 Fair CLR 63.5 61.3 93% 30.05 0.0
30 05:15 S 6 10.00 Fair CLR 64 61.3 91% 30.05 0.0
30 04:55 S 3 10.00 Fair CLR 64.6 61.7 90% 30.05 0.0
30 04:35 S 7 10.00 Fair CLR 65.3 61.9 89% 30.05 0.0
30 04:15 S 7 10.00 Fair CLR 65.3 62.1 89% 30.06 0.0
30 03:55 S 8 10.00 Fair CLR 65.3 62.1 89% 30.06 0.0
30 03:35 S 5 10.00 Fair CLR 64.8 62.2 92% 30.06 0.0
30 03:15 S 6 10.00 Fair CLR 65.3 62.6 91% 30.06 0.0
30 02:55 S 7 10.00 Fair CLR 66.2 62.6 88% 30.06 0.0
30 02:35 S 6 10.00 Fair CLR 66.7 62.8 87% 30.06 0.0
30 02:15 S 7 10.00 Fair CLR 67.5 62.8 85% 30.06 0.0
30 01:55 S 6 10.00 Fair CLR 67.1 62.8 86% 30.07 0.0
30 01:35 SE 6 10.00 Fair CLR 66.6 62.4 87% 30.07 0.0
30 01:15 S 5 10.00 Fair CLR 66 61.9 87% 30.07 0.0
30 00:55 S 6 10.00 Fair CLR 66.4 62.1 76.3 66.4 86% 30.06 0.0
30 00:35 S 6 10.00 Fair CLR 68 62.2 82% 30.07 0.0
30 00:15 S 6 10.00 Fair CLR 69.1 62.1 78% 30.07 0.0
29 23:55 S 6 10.00 Fair CLR 69.1 62.2 79% 30.07 0.0
29 23:35 SE 5 10.00 Fair CLR 69.8 62.6 78% 30.08 0.0
29 23:15 SE 6 10.00 Fair CLR 69.8 62.6 78% 30.07 0.0
29 22:55 SE 5 10.00 Fair CLR 69.8 62.6 78% 30.08 0.0
29 22:35 SE 5 10.00 Fair CLR 70.7 62.6 76% 30.08 0.0
29 22:15 SE 5 10.00 Fair CLR 70.2 62.6 77% 30.08 0.0
29 21:55 SE 3 10.00 Fair CLR 71.2 62.6 74% 30.08 0.0
29 21:35 SE 5 10.00 Fair CLR 72.5 62.8 72% 30.08 0.0
29 21:15 SE 5 10.00 Fair CLR 71.8 62.6 73% 30.07 0.0
29 20:55 SE 5 10.00 Fair CLR 72.5 62.6 71% 30.07 0.0
29 20:35 SE 3 10.00 Fair CLR 73.2 62.8 70% 30.06 0.0
29 20:15 SE 5 10.00 Fair CLR 73.6 62.6 69% 30.05 0.0
29 19:55 SE 3 10.00 Fair CLR 73.4 63.1 70% 30.05 0.0
29 19:35 S 5 10.00 Fair CLR 74.3 63.1 68% 30.04 0.0
29 19:15 S 6 10.00 Fair CLR 75.2 63.7 68% 77 30.04 0.0
29 18:55 S 6 10.00 Fair CLR 76.5 65.1 85.1 76.5 68% 78 30.05 0.0
29 18:35 S 3 10.00 Fair CLR 78.1 63.3 61% 80 30.06 0.0
29 18:15 S 5 10.00 Fair CLR 81 63 54% 82 30.07 0.0
29 17:55 S 5 10.00 Fair CLR 81.5 61.9 51% 82 30.07 0.0
29 17:35 S 7 10.00 Fair CLR 81.7 61.9 51% 83 30.07 0.0
29 17:15 S 8 10.00 Fair CLR 82.2 60.8 48% 83 30.08 0.0
29 16:55 SW 9 10.00 Fair CLR 84.2 61 46% 84 30.08 0.0
29 16:35 S 7 10.00 Fair CLR 82.6 60.3 47% 83 30.08 0.0
29 16:15 S 10 10.00 Fair CLR 83.3 60.4 46% 84 30.08 0.0
29 15:55 S 7 10.00 Fair CLR 83.7 59.4 44% 84 30.1 0.0
29 15:35 SE 9 10.00 Fair CLR 83.1 58.3 43% 83 30.1 0.0
29 15:15 S 12 10.00 Fair CLR 85.1 59.5 42% 85 30.1 0.0
29 14:55 S 6 10.00 Fair CLR 83.7 59.4 44% 84 30.11 0.0
29 14:35 S 8 10.00 Fair CLR 82.9 59 44% 83 30.12 0.0
29 14:15 S 8 10.00 Fair CLR 82.8 58.5 44% 83 30.13 0.0
29 13:55 S 6 10.00 Fair CLR 84 58.8 43% 84 30.13 0.0
29 13:35 S 12 10.00 Fair CLR 83.8 59.7 44% 84 30.13 0.0
29 13:15 S 9 10.00 Fair CLR 83.8 59.9 44% 84 30.14 0.0
29 12:55 S 8 10.00 Fair CLR 82.6 59.7 83.5 63.5 46% 83 30.14 0.0
29 12:35 S 12 10.00 Fair CLR 82.6 60.6 48% 83 30.16 0.0
29 12:15 S 9 10.00 Fair CLR 81.7 61.7 51% 83 30.16 0.0
29 11:55 S 7 10.00 Fair CLR 81.1 61.5 51% 82 30.17 0.0
29 11:35 SE 7 10.00 Fair CLR 81.1 62.1 52% 82 30.18 0.0
29 11:15 S 8 10.00 Fair CLR 79.9 61.9 54% 81 30.18 0.0
29 10:55 SE 8 10.00 Fair CLR 78.3 61.7 57% 80 30.19 0.0
29 10:35 S 8 10.00 Fair CLR 77.9 60.6 55% 79 30.18 0.0
29 10:15 S 10 10.00 Fair CLR 76.5 60.1 57% 78 30.18 0.0
29 09:55 S 9 10.00 Fair CLR 74.7 61.5 64% 30.18 0.0
29 09:35 S 6 10.00 Fair CLR 72.9 61.7 68% 30.18 0.0
29 09:15 S 7 10.00 Fair CLR 71.8 61.5 70% 30.18 0.0
29 08:55 S 5 10.00 Fair CLR 70.7 61.5 73% 30.19 0.0
29 08:35 S 3 10.00 Fair CLR 68.7 61.3 77% 30.19 0.0
29 08:15 Calm 10.00 Fair CLR 67.1 60.1 78% 30.18 0.0
29 07:55 SE 3 10.00 Fair CLR 65.7 59.2 80% 30.18 0.0
29 07:35 Calm 10.00 Fair CLR 64.6 58.6 81% 30.17 0.0
29 07:15 SE 3 10.00 Fair CLR 64.4 58.3 81% 30.16 0.0
29 06:55 SE 3 10.00 Fair CLR 63.5 57.9 66.4 62.2 82% 30.16 0.0
29 06:35 Calm 10.00 Fair CLR 62.2 57.6 85% 30.16 0.0
29 06:15 Calm 10.00 Fair CLR 62.6 57.6 84% 30.15 0.0
29 05:55 SE 3 10.00 Fair CLR 62.6 57.6 84% 30.14 0.0
29 05:35 SE 6 10.00 Fair CLR 63.7 57.7 81% 30.14 0.0
29 05:15 SE 6 10.00 Fair CLR 63.5 57.7 82% 30.15 0.0
29 04:55 SE 3 10.00 Fair CLR 63.1 57.7 83% 30.16 0.0
29 04:35 SE 5 10.00 Fair CLR 63.5 57.9 82% 30.16 0.0
29 04:15 SE 3 10.00 Fair CLR 63.5 57.7 82% 30.15 0.0
29 03:55 SE 6 10.00 Fair CLR 64.4 58.1 80% 30.15 0.0
29 03:35 SE 6 10.00 Fair CLR 64.6 58.1 80% 30.15 0.0
29 03:15 SE 6 10.00 Fair CLR 64.8 58.1 79% 30.15 0.0
29 02:55 SE 5 10.00 Fair CLR 64.9 58.3 79% 30.15 0.0
29 02:35 SE 5 10.00 Fair CLR 65.3 58.5 79% 30.15 0.0
29 02:15 SE 6 10.00 Fair CLR 65.8 58.5 77% 30.15 0.0
29 01:55 SE 7 10.00 Fair CLR 65.8 59 79% 30.15 0.0
29 01:35 SE 6 10.00 Fair CLR 66.2 59 78% 30.15 0.0
29 01:15 E 5 10.00 Fair CLR 64.9 59.5 83% 30.16 0.0
29 00:55 E 5 10.00 Fair CLR 64.4 59.9 78.1 64 85% 30.16 0.0
29 00:35 E 3 10.00 Fair CLR 64.4 60.1 86% 30.16 0.0
29 00:15 Calm 10.00 Fair CLR 64.9 60.1 84% 30.16 0.0
28 23:55 E 3 10.00 Fair CLR 64.9 60.1 84% 30.16 0.0
28 23:35 E 3 10.00 Fair CLR 65.8 59.4 80% 30.15 0.0
28 23:15 E 5 10.00 Fair CLR 67.5 59.4 75% 30.15 0.0
28 22:55 E 6 10.00 Fair CLR 67.3 59.2 75% 30.15 0.0
28 22:35 E 6 10.00 Fair CLR 68 59 73% 30.15 0.0
28 22:15 E 5 10.00 Fair CLR 68.2 58.5 71% 30.15 0.0
28 21:55 E 5 10.00 Fair CLR 68.2 58.1 70% 30.14 0.0
28 21:35 E 5 10.00 Fair CLR 69.3 58.1 68% 30.14 0.0
28 21:15 E 5 10.00 Fair CLR 68.7 58.1 69% 30.14 0.0
28 20:55 Calm 10.00 Fair CLR 68 59 73% 30.13 0.0
28 20:35 Calm 10.00 Fair CLR 68.9 59.7 73% 30.13 0.0
28 20:15 Calm 10.00 Fair CLR 70.3 59.5 69% 30.12 0.0
28 19:55 Calm 10.00 Fair CLR 72 59.4 65% 30.12 0.0
28 19:35 Calm 10.00 Fair CLR 73.4 59 61% 30.11 0.0
28 19:15 E 3 10.00 Fair CLR 77.7 57.7 50% 79 30.11 0.0
28 18:55 Calm 10.00 Fair CLR 78.3 57.7 84.7 78.1 49% 79 30.11 0.0
28 18:35 NE 3 10.00 Fair CLR 80.1 55.8 43% 80 30.12 0.0
28 18:15 E 5 10.00 Partly Cloudy SCT065 82.9 54.3 37% 82 30.12 0.0
28 17:55 E 5 10.00 Mostly Cloudy BKN065 83.7 55.2 38% 83 30.12 0.0
28 17:35 N 5 10.00 Fair CLR 83.1 54.7 38% 82 30.11 0.0
28 17:15 Calm 10.00 Fair CLR 82.9 55.9 40% 82 30.11 0.0
28 16:55 Calm 10.00 Fair CLR 83.3 54.9 38% 82 30.12 0.0
28 16:35 N 3 10.00 Partly Cloudy SCT065 84.4 54.5 36% 83 30.12 0.0
28 16:15 Calm 10.00 Partly Cloudy SCT065 84.2 54.7 36% 83 30.12 0.0
28 15:55 N 7 10.00 Fair CLR 84.4 56.5 39% 83 30.13 0.0
28 15:35 NE 6 10.00 Partly Cloudy SCT060 83.3 56.8 41% 83 30.13 0.0
28 15:15 N 7 10.00 Fair CLR 83.5 56.5 40% 83 30.14 0.0
28 14:55 NE 7 10.00 Partly Cloudy SCT055 82.9 56.1 40% 82 30.14 0.0
28 14:35 N 9 G 22 10.00 Partly Cloudy SCT055 83.8 57.6 41% 83 30.14 0.0
28 14:15 Calm 10.00 Partly Cloudy SCT065 83.5 56.7 40% 83 30.15 0.0
28 13:55 N 8 10.00 Mostly Cloudy SCT055 BKN065 82.8 57.7 43% 82 30.16 0.0
28 13:35 W 3 10.00 Partly Cloudy SCT055 SCT065 79.9 55.2 43% 80 30.16 0.0
28 13:15 Calm 10.00 Partly Cloudy SCT055 82.9 57.6 42% 83 30.17 0.0
28 12:55 N 8 10.00 Partly Cloudy SCT055 82 58.1 82 60.4 44% 82 30.17 0.0
28 12:35 Calm 10.00 Partly Cloudy SCT049 SCT060 80.2 57.4 46% 81 30.18 0.0
28 12:15 NW 6 10.00 Partly Cloudy SCT049 SCT060 81 58.1 46% 81 30.19 0.0
28 11:55 Calm 10.00 Fair CLR 80.2 57.7 46% 81 30.19 0.0
28 11:35 Calm 10.00 Fair CLR 80.1 57.4 46% 80 30.19 0.0
28 11:15 NW 6 10.00 Fair CLR 79.3 58.8 50% 80 30.19 0.0
28 10:55 Calm 10.00 Fair CLR 79.3 58.1 48% 80 30.19 0.0
28 10:35 N 5 10.00 Fair CLR 78.1 58.8 52% 79 30.18 0.0
28 10:15 N 5 10.00 Fair CLR 77.5 59.2 53% 79 30.18 0.0
28 09:55 N 5 10.00 Fair CLR 76.6 61.5 60% 78 30.17 0.0
28 09:35 N 3 10.00 Fair CLR 75.4 61.2 61% 78 30.17 0.0
28 09:15 N 5 10.00 Fair CLR 73.6 62.2 68% 30.17 0.0
28 08:55 Calm 10.00 Fair CLR 72.9 62.2 69% 30.17 0.0
28 08:35 Calm 10.00 Fair CLR 70.7 64.2 80% 30.17 0.0
28 08:15 Calm 10.00 Fair CLR 68.4 62.6 82% 30.17 0.0
28 07:55 Calm 10.00 Fair CLR 66.4 62.8 88% 30.16 0.0
28 07:35 Calm 10.00 Fair CLR 64 61.7 92% 30.16 0.0
28 07:15 Calm 10.00 Fair CLR 62.1 60.8 96% 30.16 0.0
28 06:55 N 5 10.00 Fair CLR 60.3 59.4 63.1 58.1 97% 30.15 0.0
28 06:35 Calm 10.00 Fair CLR 58.8 57.9 97% 30.14 0.0
28 06:15 Calm 10.00 Fair CLR 59 58.1 97% 30.14 0.0
28 05:55 Calm 10.00 Fair CLR 60.3 59 96% 30.13 0.0
28 05:35 Calm 10.00 Fair CLR 58.6 57.7 97% 30.13 0.0
28 05:15 Calm 10.00 Fair CLR 58.6 57.7 97% 30.13 0.0
Date Time (cdt) Wind (mph) Vis. (mi.) Weather Sky Cond. Air Dwpt Max. Min. Relative Humidity Wind Chill (°F) Heat Index (°F) altimeter (in) sea level (mb) 1 hr 3 hr 6 hr
6 hour
Temperature (ºF) Pressure Precipitation (in)